createdAt,value
2023-04-15T00:01:01.561Z,81.83
2023-04-15T00:03:30.241Z,82.63
2023-04-15T00:06:00.132Z,82.45
2023-04-15T00:08:30.191Z,82.38
2023-04-15T00:11:03.142Z,82.46
2023-04-15T00:13:34.179Z,81.59
2023-04-15T00:16:02.815Z,81.59
2023-04-15T00:18:31.948Z,81.69
2023-04-15T00:21:00.430Z,81.72
2023-04-15T00:23:29.090Z,81.72
2023-04-15T00:25:57.475Z,81.81
2023-04-15T00:28:25.741Z,81.80
2023-04-15T00:30:54.133Z,82.05
2023-04-15T00:33:22.432Z,83.93
2023-04-15T00:35:51.067Z,82.60
2023-04-15T00:38:19.797Z,82.19
2023-04-15T00:40:48.489Z,82.43
2023-04-15T00:43:17.845Z,82.64
2023-04-15T00:45:47.410Z,83.18
2023-04-15T00:48:16.569Z,83.13
2023-04-15T00:50:44.937Z,83.37
2023-04-15T00:53:13.418Z,84.38
2023-04-15T00:55:42.820Z,84.31
2023-04-15T00:58:11.332Z,85.23
2023-04-15T01:00:41.030Z,85.54
2023-04-15T01:03:10.321Z,85.57
2023-04-15T01:05:39.547Z,85.12
2023-04-15T01:08:07.910Z,84.30
2023-04-15T01:10:36.142Z,82.77
2023-04-15T01:13:04.474Z,82.63
2023-04-15T01:15:32.933Z,82.68
2023-04-15T01:18:03.360Z,83.38
2023-04-15T01:20:32.263Z,83.84
2023-04-15T01:23:01.536Z,84.60
2023-04-15T01:25:33.460Z,85.27
2023-04-15T01:28:02.407Z,85.83
2023-04-15T01:30:34.948Z,86.48
2023-04-15T01:33:03.340Z,85.76
2023-04-15T01:35:32.389Z,86.06
2023-04-15T01:38:07.599Z,85.34
2023-04-15T01:40:36.000Z,85.77
2023-04-15T01:43:04.257Z,84.99
2023-04-15T01:45:32.442Z,84.44
2023-04-15T01:48:01.072Z,84.34
2023-04-15T01:50:29.511Z,86.04
2023-04-15T01:52:57.834Z,88.50
2023-04-15T01:55:26.380Z,88.52
2023-04-15T01:57:55.001Z,88.33
2023-04-15T02:00:24.190Z,89.08
2023-04-15T02:02:54.265Z,90.30
2023-04-15T02:05:22.889Z,89.09
2023-04-15T02:07:51.566Z,87.69
2023-04-15T02:10:19.916Z,87.52
2023-04-15T02:12:48.031Z,89.00
2023-04-15T02:15:16.699Z,89.84
2023-04-15T02:17:46.231Z,91.23
2023-04-15T02:20:19.400Z,91.89
2023-04-15T02:22:48.599Z,92.09
2023-04-15T02:25:17.406Z,92.73
2023-04-15T02:27:45.872Z,93.25
2023-04-15T02:30:14.290Z,92.79
2023-04-15T02:32:45.456Z,92.08
2023-04-15T02:35:14.378Z,92.75
2023-04-15T02:37:44.023Z,92.94
2023-04-15T02:40:13.408Z,94.12
2023-04-15T02:42:43.383Z,93.40
2023-04-15T02:45:13.901Z,94.58
2023-04-15T02:47:43.457Z,93.83
2023-04-15T02:50:13.394Z,94.81
2023-04-15T02:52:44.954Z,94.41
2023-04-15T02:55:13.536Z,93.40
2023-04-15T02:57:41.992Z,93.27
2023-04-15T03:00:12.374Z,92.99
2023-04-15T03:02:43.576Z,92.66
2023-04-15T03:05:13.915Z,92.42
2023-04-15T03:07:46.488Z,92.48
2023-04-15T03:10:15.826Z,92.53
2023-04-15T03:12:44.009Z,94.69
2023-04-15T03:15:15.814Z,95.10
2023-04-15T03:17:46.682Z,96.02
2023-04-15T03:20:15.835Z,96.15
2023-04-15T03:22:44.337Z,97.26
2023-04-15T03:25:12.630Z,96.63
2023-04-15T03:27:42.064Z,96.23
2023-04-15T03:30:11.227Z,95.18
2023-04-15T03:32:40.427Z,95.36
2023-04-15T03:35:09.849Z,95.65
2023-04-15T03:37:38.209Z,95.65
2023-04-15T03:40:07.495Z,96.14
2023-04-15T03:42:35.788Z,95.92
2023-04-15T03:45:04.789Z,96.09
2023-04-15T03:47:33.097Z,95.18
2023-04-15T03:50:01.359Z,93.78
2023-04-15T03:52:29.532Z,92.89
2023-04-15T03:54:58.000Z,92.61
2023-04-15T03:57:26.723Z,92.45
2023-04-15T03:59:54.983Z,91.38
2023-04-15T04:02:23.712Z,90.77
2023-04-15T04:04:52.265Z,90.85
2023-04-15T04:07:20.521Z,90.70
2023-04-15T04:09:48.929Z,91.31
2023-04-15T04:12:17.171Z,91.37
2023-04-15T04:14:45.963Z,91.93
2023-04-15T04:17:14.173Z,91.56
2023-04-15T04:19:42.423Z,90.07
2023-04-15T04:22:10.827Z,89.46
2023-04-15T04:24:39.177Z,89.13
2023-04-15T04:27:07.770Z,89.46
2023-04-15T04:29:36.360Z,89.36
2023-04-15T04:32:05.071Z,88.91
2023-04-15T04:34:33.350Z,88.76
2023-04-15T04:37:01.587Z,88.90
2023-04-15T04:39:29.772Z,88.16
2023-04-15T04:41:57.866Z,87.83
2023-04-15T04:44:26.523Z,87.52
2023-04-15T04:46:54.834Z,86.49
2023-04-15T04:49:23.392Z,85.92
2023-04-15T04:51:52.497Z,85.72
2023-04-15T04:54:21.489Z,85.84
2023-04-15T04:56:49.653Z,85.39
2023-04-15T04:59:19.396Z,84.58
2023-04-15T05:01:48.308Z,84.41
2023-04-15T05:04:17.045Z,84.30
2023-04-15T05:06:45.547Z,84.78
2023-04-15T05:09:13.711Z,84.42
2023-04-15T05:11:42.123Z,83.65
2023-04-15T05:14:10.475Z,83.52
2023-04-15T05:16:38.802Z,83.78
2023-04-15T05:19:07.888Z,84.31
2023-04-15T05:21:38.253Z,85.17
2023-04-15T05:24:07.791Z,86.09
2023-04-15T05:26:36.087Z,79.57
2023-04-15T05:29:04.613Z,74.29
2023-04-15T05:31:33.218Z,67.50
2023-04-15T05:34:01.816Z,58.79
2023-04-15T05:36:30.029Z,55.19
2023-04-15T05:38:58.295Z,52.60
2023-04-15T05:41:26.658Z,49.65
2023-04-15T05:43:55.055Z,47.68
2023-04-15T05:46:23.392Z,47.47
2023-04-15T05:48:51.847Z,46.24
2023-04-15T05:51:20.383Z,44.80
2023-04-15T05:53:48.763Z,45.81
2023-04-15T05:56:17.358Z,45.09
2023-04-15T05:58:45.529Z,45.13
2023-04-15T06:01:13.753Z,44.97
2023-04-15T06:03:43.131Z,45.51
2023-04-15T06:06:11.488Z,44.06
2023-04-15T06:08:39.772Z,42.11
2023-04-15T06:11:08.040Z,41.19
2023-04-15T06:13:36.376Z,40.88
2023-04-15T06:16:05.467Z,41.63
2023-04-15T06:18:33.702Z,41.04
2023-04-15T06:21:02.081Z,41.24
2023-04-15T06:23:30.561Z,42.89
2023-04-15T06:25:58.868Z,43.18
2023-04-15T06:28:27.012Z,44.74
2023-04-15T06:30:55.148Z,45.68
2023-04-15T06:33:23.568Z,47.12
2023-04-15T06:35:51.741Z,48.36
2023-04-15T06:38:20.073Z,48.47
2023-04-15T06:40:48.398Z,49.17
2023-04-15T06:43:16.619Z,49.72
2023-04-15T06:45:44.889Z,51.44
2023-04-15T06:48:13.449Z,51.67
2023-04-15T06:50:41.928Z,53.13
2023-04-15T06:53:10.200Z,53.76
2023-04-15T06:55:38.463Z,54.16
2023-04-15T06:58:06.571Z,54.35
2023-04-15T07:00:34.725Z,56.09
2023-04-15T07:03:03.968Z,57.45
2023-04-15T07:05:32.611Z,58.94
2023-04-15T07:08:01.353Z,58.75
2023-04-15T07:10:30.198Z,57.69
2023-04-15T07:12:58.577Z,58.10
2023-04-15T07:15:26.769Z,59.02
2023-04-15T07:17:55.398Z,58.37
2023-04-15T07:20:23.750Z,58.29
2023-04-15T07:22:52.006Z,58.44
2023-04-15T07:25:20.785Z,59.48
2023-04-15T07:27:49.077Z,59.18
2023-04-15T07:30:17.442Z,57.88
2023-04-15T07:32:45.895Z,58.22
2023-04-15T07:35:14.919Z,58.77
2023-04-15T07:37:43.710Z,57.38
2023-04-15T07:40:12.129Z,56.31
2023-04-15T07:42:41.451Z,55.53
2023-04-15T07:45:10.549Z,53.98
2023-04-15T07:47:38.842Z,52.78
2023-04-15T07:50:07.534Z,52.60
2023-04-15T07:52:39.335Z,50.39
2023-04-15T07:55:11.545Z,49.22
2023-04-15T07:57:40.171Z,50.02
2023-04-15T08:00:09.302Z,49.33
2023-04-15T08:02:43.735Z,49.39
2023-04-15T08:05:12.210Z,48.79
2023-04-15T08:07:41.095Z,48.72
2023-04-15T08:10:10.171Z,48.67
2023-04-15T08:12:38.655Z,49.45
2023-04-15T08:15:08.473Z,49.40
2023-04-15T08:17:36.848Z,48.80
2023-04-15T08:20:06.175Z,48.28
2023-04-15T08:22:34.635Z,47.65
2023-04-15T08:25:03.844Z,48.35
2023-04-15T08:27:32.240Z,48.53
2023-04-15T08:30:02.153Z,48.61
2023-04-15T08:32:32.268Z,48.33
2023-04-15T08:35:00.834Z,48.14
2023-04-15T08:37:29.294Z,48.51
2023-04-15T08:39:57.529Z,47.78
2023-04-15T08:42:32.864Z,46.15
2023-04-15T08:45:02.192Z,44.48
2023-04-15T08:47:34.639Z,44.27
2023-04-15T08:50:04.640Z,43.62
2023-04-15T08:52:33.353Z,43.01
2023-04-15T08:55:03.804Z,41.65
2023-04-15T08:57:33.624Z,40.07
2023-04-15T09:00:05.706Z,40.59
2023-04-15T09:02:34.666Z,40.79
2023-04-15T09:05:05.173Z,41.53
2023-04-15T09:07:36.920Z,41.89
2023-04-15T09:10:05.718Z,41.19
2023-04-15T09:12:37.703Z,39.83
2023-04-15T09:15:06.965Z,38.49
2023-04-15T09:17:35.269Z,36.79
2023-04-15T09:20:15.297Z,37.66
2023-04-15T09:22:45.644Z,35.82
2023-04-15T09:25:22.925Z,35.61
2023-04-15T09:27:58.409Z,35.94
2023-04-15T09:30:28.601Z,35.11
2023-04-15T09:33:02.548Z,34.20
2023-04-15T09:35:31.239Z,33.24
2023-04-15T09:38:08.289Z,34.40
2023-04-15T09:40:36.569Z,33.91
2023-04-15T09:43:06.292Z,33.05
2023-04-15T09:45:36.009Z,33.03
2023-04-15T09:48:31.505Z,33.22
2023-04-15T09:51:01.669Z,33.95
2023-04-15T09:53:33.096Z,34.00
2023-04-15T09:56:02.686Z,34.41
2023-04-15T09:58:33.833Z,34.37
2023-04-15T10:01:05.261Z,33.95
2023-04-15T10:03:39.187Z,33.99
2023-04-15T10:06:08.324Z,34.18
2023-04-15T10:08:36.560Z,34.12
2023-04-15T10:11:06.175Z,36.47
2023-04-15T10:13:36.536Z,36.75
2023-04-15T10:16:10.985Z,38.37
2023-04-15T10:18:43.939Z,38.72
2023-04-15T10:21:18.994Z,38.24
2023-04-15T10:23:47.817Z,38.69
2023-04-15T10:26:17.682Z,39.67
2023-04-15T10:28:50.097Z,39.49
2023-04-15T10:31:20.240Z,40.16
2023-04-15T10:33:49.551Z,42.06
2023-04-15T10:36:20.346Z,39.58
2023-04-15T10:38:48.776Z,37.94
2023-04-15T10:41:21.060Z,38.33
2023-04-15T10:44:01.649Z,38.70
2023-04-15T10:46:46.013Z,38.66
2023-04-15T10:49:17.184Z,38.87
2023-04-15T10:51:51.371Z,37.17
2023-04-15T10:54:25.898Z,37.43
2023-04-15T10:57:06.729Z,37.47
2023-04-15T11:00:06.952Z,36.31
2023-04-15T11:02:47.691Z,36.53
2023-04-15T11:05:17.831Z,35.46
2023-04-15T11:07:58.955Z,34.97
2023-04-15T11:10:31.112Z,34.76
2023-04-15T11:13:00.668Z,35.41
2023-04-15T11:15:32.613Z,36.22
2023-04-15T11:18:14.077Z,35.32
2023-04-15T11:20:47.433Z,35.65
2023-04-15T11:23:17.085Z,35.72
2023-04-15T11:25:46.304Z,34.81
2023-04-15T11:28:14.538Z,34.36
2023-04-15T11:30:43.693Z,34.39
2023-04-15T11:33:13.931Z,34.87
2023-04-15T11:35:42.764Z,34.11
2023-04-15T11:38:13.210Z,33.35
2023-04-15T11:40:44.567Z,34.26
2023-04-15T11:43:23.060Z,32.93
2023-04-15T11:45:53.467Z,32.02
2023-04-15T11:48:28.074Z,31.30
2023-04-15T11:50:59.402Z,32.08
2023-04-15T11:53:48.303Z,33.31
2023-04-15T11:56:22.060Z,31.73
2023-04-15T11:58:59.449Z,31.19
2023-04-15T12:01:48.141Z,31.89
2023-04-15T12:04:23.490Z,31.29
2023-04-15T12:06:53.633Z,32.57
2023-04-15T12:09:21.962Z,32.23
2023-04-15T12:11:58.577Z,31.96
2023-04-15T12:14:29.238Z,31.88
2023-04-15T12:17:02.354Z,32.15
2023-04-15T12:19:38.987Z,32.56
2023-04-15T12:22:14.133Z,33.62
2023-04-15T12:24:48.670Z,31.47
2023-04-15T12:27:17.877Z,31.53
2023-04-15T12:29:46.160Z,32.33
2023-04-15T12:32:16.460Z,32.51
2023-04-15T12:34:50.947Z,32.71
2023-04-15T12:37:19.645Z,32.47
2023-04-15T12:39:50.637Z,32.61
2023-04-15T12:42:19.306Z,32.87
2023-04-15T12:44:47.577Z,34.15
2023-04-15T12:47:15.975Z,33.65
2023-04-15T12:49:44.260Z,33.36
2023-04-15T12:52:12.732Z,32.77
2023-04-15T12:54:40.859Z,33.52
2023-04-15T12:57:09.184Z,34.04
2023-04-15T12:59:37.774Z,33.08
2023-04-15T13:02:06.185Z,33.22
2023-04-15T13:04:34.669Z,32.29
2023-04-15T13:07:03.202Z,32.42
2023-04-15T13:09:31.486Z,31.75
2023-04-15T13:11:59.748Z,32.77
2023-04-15T13:14:27.860Z,33.49
2023-04-15T13:16:56.530Z,33.82
2023-04-15T13:19:24.647Z,34.17
2023-04-15T13:21:52.893Z,33.82
2023-04-15T13:24:21.033Z,33.64
2023-04-15T13:26:50.403Z,34.32
2023-04-15T13:29:18.973Z,32.84
2023-04-15T13:31:47.298Z,33.08
2023-04-15T13:34:15.799Z,33.46
2023-04-15T13:36:44.079Z,34.02
2023-04-15T13:39:12.228Z,33.38
2023-04-15T13:41:41.148Z,32.76
2023-04-15T13:44:09.666Z,32.96
2023-04-15T13:46:39.754Z,32.47
2023-04-15T13:49:08.033Z,33.15
2023-04-15T13:51:40.677Z,34.12
2023-04-15T13:54:09.193Z,33.40
2023-04-15T13:56:37.748Z,33.53
2023-04-15T13:59:06.884Z,33.18
2023-04-15T14:01:36.144Z,32.61
2023-04-15T14:04:04.760Z,33.03
2023-04-15T14:06:33.553Z,33.31
2023-04-15T14:09:01.715Z,34.32
2023-04-15T14:11:30.220Z,34.02
2023-04-15T14:13:58.493Z,34.37
2023-04-15T14:16:26.925Z,35.30
2023-04-15T14:18:55.353Z,35.64
2023-04-15T14:21:23.776Z,36.45
2023-04-15T14:23:52.010Z,37.53
2023-04-15T14:26:20.684Z,38.34
2023-04-15T14:28:49.021Z,38.78
2023-04-15T14:31:17.344Z,39.24
2023-04-15T14:33:46.517Z,39.29
2023-04-15T14:36:14.743Z,39.77
2023-04-15T14:38:43.214Z,39.06
2023-04-15T14:41:12.347Z,40.30
2023-04-15T14:43:40.589Z,41.18
2023-04-15T14:46:09.359Z,42.10
2023-04-15T14:48:37.995Z,43.13
2023-04-15T14:51:06.961Z,42.99
2023-04-15T14:53:35.169Z,42.94
2023-04-15T14:56:03.723Z,43.05
2023-04-15T14:58:33.543Z,43.40
2023-04-15T15:01:03.097Z,43.53
2023-04-15T15:03:31.820Z,44.38
2023-04-15T15:06:00.163Z,43.91
2023-04-15T15:08:28.597Z,43.46
2023-04-15T15:10:56.984Z,40.51
2023-04-15T15:13:25.880Z,40.67
2023-04-15T15:15:54.183Z,41.66
2023-04-15T15:18:22.557Z,42.37
2023-04-15T15:20:50.851Z,43.67
2023-04-15T15:23:19.393Z,44.78
2023-04-15T15:25:47.984Z,45.83
2023-04-15T15:28:16.358Z,44.99
2023-04-15T15:30:44.420Z,45.22
2023-04-15T15:33:13.019Z,46.71
2023-04-15T15:35:41.500Z,49.38
2023-04-15T15:38:12.043Z,47.92
2023-04-15T15:40:40.517Z,44.88
2023-04-15T15:43:09.049Z,45.61
2023-04-15T15:45:37.487Z,46.00
2023-04-15T15:48:06.606Z,44.29
2023-04-15T15:50:34.906Z,44.37
2023-04-15T15:53:03.147Z,44.52
2023-04-15T15:55:31.357Z,43.38
2023-04-15T15:57:59.588Z,41.84
2023-04-15T16:00:27.871Z,43.02
2023-04-15T16:05:28.855Z,45.24
2023-04-15T16:07:57.162Z,45.75
2023-04-15T16:10:25.594Z,46.88
2023-04-15T16:12:54.769Z,48.47
2023-04-15T16:15:26.221Z,49.55
2023-04-15T16:17:54.903Z,50.96
2023-04-15T16:20:23.606Z,53.10
2023-04-15T16:22:51.795Z,54.11
2023-04-15T16:25:20.569Z,54.59
2023-04-15T16:28:00.762Z,55.08
2023-04-15T16:30:43.862Z,55.47
2023-04-15T16:33:12.067Z,56.73
2023-04-15T16:35:40.142Z,58.03
2023-04-15T16:38:08.389Z,58.60
2023-04-15T16:40:37.816Z,59.33
2023-04-15T16:43:11.434Z,61.05
2023-04-15T16:45:39.801Z,62.68
2023-04-15T16:48:07.961Z,63.48
2023-04-15T16:50:39.098Z,58.92
2023-04-15T16:53:08.129Z,58.29
2023-04-15T16:55:36.380Z,58.98
2023-04-15T16:58:05.986Z,58.68
2023-04-15T17:00:37.283Z,58.99
2023-04-15T17:03:06.374Z,61.83
2023-04-15T17:05:35.222Z,62.58
2023-04-15T17:08:05.454Z,61.97
2023-04-15T17:10:33.821Z,62.87
2023-04-15T17:13:02.026Z,63.27
2023-04-15T17:15:30.907Z,63.54
2023-04-15T17:17:59.347Z,63.49
2023-04-15T17:20:27.855Z,61.48
2023-04-15T17:22:56.561Z,63.77
2023-04-15T17:25:24.865Z,63.62
2023-04-15T17:27:52.925Z,62.59
2023-04-15T17:30:21.683Z,66.63
2023-04-15T17:32:51.684Z,66.94
2023-04-15T17:35:20.502Z,63.88
2023-04-15T17:37:48.772Z,63.93
2023-04-15T17:40:17.157Z,64.29
2023-04-15T17:42:45.532Z,64.76
2023-04-15T17:45:14.666Z,66.30
2023-04-15T17:47:43.055Z,66.74
2023-04-15T17:50:11.536Z,65.78
2023-04-15T17:52:39.776Z,64.02
2023-04-15T17:55:08.678Z,64.07
2023-04-15T17:57:37.161Z,64.39
2023-04-15T18:00:10.346Z,65.71
2023-04-15T18:02:41.825Z,67.20
2023-04-15T18:05:10.708Z,65.90
2023-04-15T18:07:39.100Z,68.48
2023-04-15T18:10:08.533Z,68.58
2023-04-15T18:12:36.951Z,69.30
2023-04-15T18:15:06.453Z,69.28
2023-04-15T18:17:34.679Z,68.45
2023-04-15T18:20:03.739Z,68.64
2023-04-15T18:22:31.910Z,69.30
2023-04-15T18:25:04.341Z,68.22
2023-04-15T18:27:34.449Z,69.75
2023-04-15T18:30:02.666Z,70.38
2023-04-15T18:32:33.019Z,72.01
2023-04-15T18:35:02.131Z,72.12
2023-04-15T18:37:30.716Z,73.13
2023-04-15T18:39:59.586Z,72.66
2023-04-15T18:42:27.820Z,75.26
2023-04-15T18:44:56.179Z,76.76
2023-04-15T18:47:27.286Z,76.20
2023-04-15T18:49:55.828Z,74.81
2023-04-15T18:52:24.357Z,76.49
2023-04-15T18:54:52.849Z,75.67
2023-04-15T18:57:24.482Z,76.10
2023-04-15T19:00:01.517Z,76.35
2023-04-15T19:02:29.821Z,77.38
2023-04-15T19:04:58.371Z,76.86
2023-04-15T19:07:26.826Z,77.18
2023-04-15T19:09:55.103Z,76.69
2023-04-15T19:12:23.444Z,77.40
2023-04-15T19:14:51.762Z,77.45
2023-04-15T19:17:20.207Z,77.26
2023-04-15T19:19:48.422Z,76.95
2023-04-15T19:22:16.968Z,75.76
2023-04-15T19:24:46.314Z,77.31
2023-04-15T19:27:14.793Z,77.16
2023-04-15T19:29:43.110Z,77.55
2023-04-15T19:32:11.456Z,77.95
2023-04-15T19:34:39.831Z,77.93
2023-04-15T19:37:08.319Z,79.49
2023-04-15T19:39:36.883Z,79.58
2023-04-15T19:42:05.587Z,77.73
2023-04-15T19:44:33.872Z,76.40
2023-04-15T19:47:02.193Z,75.56
2023-04-15T19:49:30.762Z,76.64
2023-04-15T19:51:59.008Z,78.11
2023-04-15T19:54:27.288Z,78.38
2023-04-15T19:56:55.873Z,79.46
2023-04-15T19:59:24.536Z,79.88
2023-04-15T20:01:53.427Z,80.39
2023-04-15T20:04:22.753Z,81.26
2023-04-15T20:06:51.108Z,81.74
2023-04-15T20:09:19.326Z,82.59
2023-04-15T20:12:46.793Z,82.31
2023-04-15T20:14:36.350Z,81.69
2023-04-15T20:17:04.539Z,81.07
2023-04-15T20:19:32.611Z,81.13
2023-04-15T20:22:00.921Z,81.55
2023-04-15T20:24:29.250Z,81.57
2023-04-15T20:26:57.833Z,81.76
2023-04-15T20:29:26.565Z,81.35
2023-04-15T20:31:54.801Z,80.71
2023-04-15T20:34:23.120Z,81.15
2023-04-15T20:36:51.467Z,81.09
2023-04-15T20:39:20.045Z,81.67
2023-04-15T20:41:50.061Z,81.52
2023-04-15T20:44:18.350Z,80.85
2023-04-15T20:46:46.875Z,81.14
2023-04-15T20:49:15.106Z,81.31
2023-04-15T20:51:43.587Z,81.16
2023-04-15T20:54:11.867Z,80.05
2023-04-15T20:56:40.246Z,80.06
2023-04-15T20:59:08.591Z,79.77
2023-04-15T21:01:36.845Z,80.03
2023-04-15T21:04:05.137Z,80.15
2023-04-15T21:06:34.648Z,79.77
2023-04-15T21:09:03.352Z,80.48
2023-04-15T21:11:53.375Z,79.76
2023-04-15T21:14:21.459Z,79.17
2023-04-15T21:16:49.679Z,78.68
2023-04-15T21:19:17.896Z,78.05
2023-04-15T21:21:46.379Z,77.90
2023-04-15T21:24:14.653Z,78.11
2023-04-15T21:26:42.832Z,78.47
2023-04-15T21:29:12.177Z,78.89
2023-04-15T21:31:40.998Z,78.40
2023-04-15T21:34:10.132Z,78.70
2023-04-15T21:36:39.224Z,77.70
2023-04-15T21:39:07.838Z,76.54
2023-04-15T21:41:37.340Z,76.22
2023-04-15T21:44:06.003Z,76.80
2023-04-15T21:46:35.574Z,76.58
2023-04-15T21:49:04.501Z,76.57
2023-04-15T21:51:33.494Z,76.40
2023-04-15T21:54:01.830Z,75.89
2023-04-15T21:56:30.159Z,75.37
2023-04-15T21:58:58.979Z,75.71
2023-04-15T22:01:27.530Z,76.04
2023-04-15T22:03:56.462Z,76.70
2023-04-15T22:06:24.940Z,76.21
2023-04-15T22:08:57.403Z,75.70
2023-04-15T22:11:27.857Z,76.52
2023-04-15T22:13:57.909Z,77.39
2023-04-15T22:16:26.852Z,78.13
2023-04-15T22:18:56.156Z,76.25
2023-04-15T22:21:24.525Z,76.66
2023-04-15T22:23:53.197Z,76.63
2023-04-15T22:26:41.389Z,77.42
2023-04-15T22:29:09.818Z,77.42
2023-04-15T22:31:38.996Z,76.59
2023-04-15T22:34:08.223Z,77.15
2023-04-15T22:36:36.576Z,77.29
2023-04-15T22:39:04.867Z,78.58
2023-04-15T22:41:33.232Z,78.91
2023-04-15T22:44:01.740Z,79.57
2023-04-15T22:46:30.344Z,79.02
2023-04-15T22:48:58.537Z,79.66
2023-04-15T22:51:28.151Z,80.47
2023-04-15T22:53:56.598Z,80.83
2023-04-15T22:56:25.018Z,81.33
2023-04-15T22:58:53.452Z,82.09
2023-04-15T23:01:21.742Z,81.09
2023-04-15T23:03:56.793Z,80.91
2023-04-15T23:06:33.360Z,80.72
2023-04-15T23:09:01.519Z,80.88
2023-04-15T23:11:30.448Z,83.42
2023-04-15T23:13:58.588Z,83.98
2023-04-15T23:16:27.538Z,83.33
2023-04-15T23:18:55.779Z,80.97
2023-04-15T23:21:26.044Z,82.68
2023-04-15T23:23:54.718Z,83.11
2023-04-15T23:26:23.480Z,83.11
2023-04-15T23:28:51.737Z,85.44
2023-04-15T23:31:20.119Z,85.60
2023-04-15T23:33:48.805Z,86.36
2023-04-15T23:36:17.244Z,84.39
2023-04-15T23:38:45.468Z,83.37
2023-04-15T23:41:14.053Z,82.46
2023-04-15T23:43:42.333Z,83.50
2023-04-15T23:46:12.080Z,84.65
2023-04-15T23:48:42.009Z,85.52
2023-04-15T23:51:10.459Z,85.21
2023-04-15T23:53:38.720Z,86.37
2023-04-15T23:56:07.626Z,86.48
2023-04-15T23:58:35.988Z,87.44
